首页
METAR-TAF:

METAR-TAF

机场 :

傑克遜維爾, 北卡罗来纳州, 美国

纬度: 34-42-21N, 经度: 077-26-27W, 海拔: 7米

当前天气观测

该预报发布于39分钟前的18:56 UTC
风速10节,风向
温度 28°C
湿度 58%
气压 1023 hPa
能見度: 16.1公里
多云层高于5500英尺
多云层高于12000英尺

METAR: KNCA 231856Z 18010KT 10SM BKN055 BKN120 28/19 A3020 RMK AO2 SLP229 T02830194

时间: 15:35 (19:35 UTC)

预报

预报有效从23日的 15点(UTC)到 24日的 15点(UTC)
风速8节,风向南转西南
能见度10公里或以上
少量云层高于2900英尺
散云层高于7500英尺
从 23日的 2300点(UTC)
风速8节,风向西南
能见度10公里或以上
少量云层高于25000英尺

TAF: KNCA 2315/2415 21008KT 9999 FEW029 SCT075 QNH3016INS FM232300 23008KT 9999 FEW250 QNH3006INS T32/2319Z T21/2410Z

超过4000个机场的气象观测和天气预报(METAR&TAF报告)。

可查询的气象台以黄色和红色小点在地图上表示。

将鼠标移到小点上方,可查看气象台名称。

然后点击查看天气观测和预报。

如需切换地图:点击带黑十字的绿色按钮放大地图;点击带横线的绿色按钮缩小地图;或者点击绿色箭头查看邻近地区的地图。


METAR-TAF: